Terminal Aerodrome Forecast
Issued by NWS

Home | Current Version | Previous Version | Text Only | Print | Product List | Glossary On
Versions: 1 2 3 4 5 6 7 8 9 10 11 12 13 14 15 16 17 18 19 20 21
000
FTUS43 KICT 250520
TAFCNU
TAF
KCNU 250520Z 2506/2606 33018G28KT P6SM -SHRA SCT027 OVC035
      TEMPO 2506/2508 OVC015
     FM250800 35015G25KT P6SM -SHRA OVC008
     FM251400 34015KT P6SM VCSH OVC015
     FM260000 33008KT P6SM OVC018=

USA.gov is the U.S. government's official web portal to all federal, state and local government web resources and services.